ADDS METAR Data INFO
IDs: Format: Raw Decoded Include TAF

Data at: 1132 UTC 29 May 2017

KLNC 291115Z AUTO 34004KT 10SM SCT100 20/18 A2997 RMK AO2 T01980176
KLNC 291055Z AUTO 01004KT 10SM CLR 20/18 A2997 RMK AO2 T01950184
KLNC 291035Z AUTO 36006KT 10SM CLR 20/19 A2997 RMK AO2 T02000190
KLNC 291015Z AUTO 36007KT 7SM CLR 20/19 A2996 RMK AO2 T02010193
KLNC 290955Z AUTO 35006KT 7SM CLR 20/19 A2996 RMK AO2 T02030194
KLNC 290935Z AUTO 35007KT 7SM CLR 20/20 A2996 RMK AO2 T02040195
KLNC 290915Z AUTO 34006KT 7SM CLR 20/20 A2997 RMK AO2 T02020195
KLNC 290855Z AUTO 35005KT 7SM CLR 20/19 A2997 RMK AO2 T02000192
KLNC 290835Z AUTO 33005KT 7SM CLR 20/19 A2998 RMK AO2 T02020194
KLNC 290815Z AUTO 32004KT 7SM CLR 20/20 A2998 RMK AO2 T02020195
KLNC 290755Z AUTO 33004KT 7SM CLR 20/19 A3000 RMK AO2 T02000194
KLNC 290735Z AUTO 33003KT 7SM CLR 20/20 A3001 RMK AO2 T02020196
KLNC 290715Z AUTO 00000KT 7SM CLR 20/20 A3003 RMK AO2 T02010195
KLNC 290655Z AUTO 00000KT 7SM CLR 20/19 A3004 RMK AO2 T02020194
KLNC 290635Z AUTO 00000KT 7SM CLR 20/20 A3004 RMK AO2 T02020195
KLNC 290615Z AUTO 31003KT 7SM SCT065 21/20 A3004 RMK AO2 T02050197
KLNC 290555Z AUTO 00000KT 7SM SCT029 SCT036 BKN060 21/20 A3004 RMK AO2 T02080200 10237 20207
KLNC 290535Z AUTO 00000KT 10SM BKN029 BKN036 OVC047 21/20 A3003 RMK AO2 T02130202
KLNC 290515Z AUTO 00000KT 10SM SCT027 BKN034 BKN044 22/20 A3003 RMK AO2 LTG DSNT SE T02150202
KLNC 290455Z AUTO 23003KT 10SM SCT041 BKN046 BKN050 22/20 A3005 RMK AO2 LTG DSNT SE T02150203
KLNC 290435Z AUTO 22004KT 7SM CLR 21/20 A3005 RMK AO2 T02100201
KLNC 290415Z AUTO 00000KT 10SM CLR 21/20 A3003 RMK AO2 LTG DSNT SE AND S T02080200
KLNC 290355Z AUTO 00000KT 10SM CLR 21/20 A3002 RMK AO2 LTG DSNT SE AND S T02120199
KLNC 290335Z AUTO 00000KT 10SM CLR 22/20 A3002 RMK AO2 LTG DSNT SE AND S T02150201
KLNC 290315Z AUTO 00000KT 10SM CLR 22/20 A3001 RMK AO2 LTG DSNT SE THRU SW T02170202
KLNC 290255Z AUTO 00000KT 10SM CLR 22/20 A3000 RMK AO2 LTG DSNT E THRU SW T02150200
KLNC 290235Z AUTO 00000KT 10SM CLR 22/20 A3000 RMK AO2 LTG DSNT SE AND S T02200200
KLNC 290215Z AUTO 00000KT 10SM CLR 22/20 A2997 RMK AO2 LTG DSNT S T02210197
KLNC 290155Z AUTO 00000KT 10SM CLR 23/20 A2995 RMK AO2 LTG DSNT SE THRU SW T02250196
KLNC 290135Z AUTO 01005KT 10SM CLR 23/20 A2991 RMK AO2 T02250196
KLNC 290115Z AUTO 02003KT 10SM SCT050 23/20 A2991 RMK AO2 LTG DSNT S AND SW T02280197
KLNC 290055Z AUTO 02005KT 10SM BKN050 23/20 A2992 RMK AO2 T02300204
KLNC 290035Z AUTO 07003KT 10SM OVC049 23/20 A2995 RMK AO2 LTG DSNT E THRU SW T02330203
KLNC 290015Z AUTO 08004KT 10SM OVC047 24/20 A2995 RMK AO2 LTG DSNT SW T02360202
KLNC 282355Z AUTO 01005KT 10SM OVC041 24/20 A2993 RMK AO2 P0003 6//// T02380200
KLNC 282335Z AUTO 00000KT 10SM OVC037 24/20 A2991 RMK AO2 LTG DSNT E AND SE P0003 T02370201
KLNC 282315Z AUTO 35004KT 10SM OVC035 24/20 A2992 RMK AO2 P0001 T02350202
KLNC 282255Z AUTO 03003KT 10SM SCT021 OVC030 23/20 A2992 RMK AO2 P0007 T02340204
KLNC 282235Z AUTO 35010KT 10SM OVC017 23/21 A2993 RMK AO2 LTG DSNT E THRU S P0005 T02270205
KLNC 282215Z AUTO 03007KT 10SM OVC013 23/21 A2992 RMK AO2 P0003 T02300209
KLNC 282155Z AUTO 36011KT 10SM OVC013 23/21 A2994 RMK AO2 LTG DSNT E AND SE P0009 T02270210
KLNC 282135Z AUTO 33008KT 10SM BKN020 OVC026 23/21 A2997 RMK AO2 LTG DSNT E P0006 T02280211
KLNC 282115Z AUTO 35006KT 10SM VCTS OVC018 23/21 A2997 RMK AO2 LTG DSNT NE AND E P0003 T02250207
KLNC 282055Z AUTO 35008KT 10SM -VCTSRA BKN016 BKN020 OVC027 23/21 A2997 RMK AO2 LTG DSNT NE THRU S P0011 6//// T02250206
KLNC 282035Z AUTO 01005KT 10SM -TSRA SCT010 BKN021 OVC027 22/21 A2997 RMK AO2 LTG DSNT NE THRU SE P0008 T02180206
KLNC 282015Z AUTO 01006G15KT 1 3/4SM TSRA SCT010 BKN016 OVC027 21/20 A2997 RMK AO2 LTG DSNT ALQS P0004 T02120204
KLNC 281955Z AUTO 01014KT 2 1/2SM +TSRA BKN014 OVC020 22/20 A2996 RMK AO2 LTG DSNT ALQS P0004 T02150201
KLNC 281940Z AUTO 01008KT 5SM +TSRA OVC016 23/20 A2997 RMK AO2 LTG DSNT ALQS T02250200
KLNC 281915Z AUTO 36007KT 10SM TS OVC015 24/20 A2998 RMK AO2 LTG DSNT N AND NW T02350200
KLNC 281855Z AUTO 02007KT 10SM SCT011 OVC016 23/20 A2997 RMK AO2 LTG DSNT W T02320200
KLNC 281835Z AUTO 04006KT 10SM OVC014 23/20 A2996 RMK AO2 T02300200
KLNC 281815Z AUTO 04006KT 10SM OVC014 23/20 A2996 RMK AO2 LTG DSNT NW T02270202
KLNC 281755Z AUTO 03007KT 10SM OVC014 22/20 A2997 RMK AO2 T02220200 10233 20202
KLNC 281735Z AUTO 04006KT 10SM BKN012 OVC019 22/20 A2997 RMK AO2 T02170201
KLNC 281715Z AUTO 05005KT 10SM BKN009 OVC019 21/20 A2998 RMK AO2 T02140200
KLNC 281655Z AUTO 05005KT 10SM BKN006 OVC019 21/20 A2997 RMK AO2 T02110200
KLNC 281635Z AUTO 08007KT 7SM BKN006 OVC017 21/20 A2997 RMK AO2 T02100200
KLNC 281615Z AUTO 07007KT 5SM BR BKN006 OVC017 21/20 A2997 RMK AO2 T02100200
KLNC 281555Z AUTO 06007KT 5SM BR SCT006 OVC017 21/20 A2997 RMK AO2 T02080199
KLNC 281535Z AUTO 05009KT 4SM BR SCT004 OVC017 21/20 A2996 RMK AO2 T02090200
KLNC 281515Z AUTO 04006KT 3SM -DZ SCT004 SCT011 OVC017 21/20 A2996 RMK AO2 T02050198
KLNC 281455Z AUTO 04006KT 3SM -DZ SCT004 SCT009 OVC015 21/20 A2996 RMK AO2 T02050196
KLNC 281435Z AUTO 03006KT 4SM -DZ SCT004 OVC015 20/19 A2995 RMK AO2 T02020193
KLNC 281415Z AUTO 04006KT 3SM RA OVC013 20/19 A2995 RMK AO2 T02040192
KLNC 281355Z AUTO 04008KT 10SM OVC013 21/19 A2994 RMK AO2 T02100188
KLNC 281335Z AUTO 05006KT 10SM OVC013 22/19 A2994 RMK AO2 T02200190
KLNC 281315Z AUTO 05006KT 10SM OVC013 23/19 A2993 RMK AO2 LTG DSNT E T02270194
KLNC 281255Z AUTO 08006KT 10SM OVC017 23/20 A2991 RMK AO2 LTG DSNT E T02270195
KLNC 281235Z AUTO 12007KT 10SM OVC015 23/19 A2990 RMK AO2 LTG DSNT E T02270191
KLNC 281215Z AUTO 11008KT 10SM OVC015 23/19 A2989 RMK AO2 LTG DSNT E T02310191
KLNC 281155Z AUTO 11011KT 10SM BKN017 OVC022 23/20 A2989 RMK AO2 LTG DSNT NE AND E T02320200 10266 20225
KLNC 281135Z AUTO 12007KT 10SM OVC019 23/20 A2986 RMK AO2 LTG DSNT E T02300200
KLNC 281115Z AUTO 10005KT 10SM -DZ BKN019 OVC025 23/20 A2986 RMK AO2 LTG DSNT NE AND E T02250197
KLNC 281055Z AUTO 13007G17KT 10SM SCT018 BKN026 OVC043 24/20 A2987 RMK AO2 LTG DSNT NE AND E T02350196
KLNC 281035Z AUTO 15005KT 10SM BKN023 BKN029 OVC050 25/22 A2985 RMK AO2 LTG DSNT NE AND E T02470215
KLNC 281015Z AUTO 14004KT 10SM OVC023 25/22 A2986 RMK AO2 LTG DSNT NW THRU NE T02490215
KLNC 280955Z AUTO 00000KT 10SM VCTS OVC021 25/22 A2986 RMK AO2 LTG DSNT NW THRU E T02500215
KLNC 280935Z AUTO 00000KT 10SM VCTS BKN017 BKN022 OVC029 25/22 A2985 RMK AO2 LTG DSNT N AND NW T02520215
KLNC 280915Z AUTO 31004G21KT 10SM BKN015 25/22 A2983 RMK AO2 LTG DSNT NW THRU E T02520215
KLNC 280855Z AUTO 19009G15KT 10SM CLR 25/22 A2977 RMK AO2 LTG DSNT NW THRU E T02470215
KLNC 280835Z AUTO 18010G16KT 10SM VCTS CLR 25/21 A2976 RMK AO2 LTG DSNT N AND E T02480212
KLNC 280815Z AUTO 18010KT 10SM CLR 25/21 A2975 RMK AO2 LTG DSNT N THRU E T02500212
KLNC 280755Z AUTO 19009KT 10SM CLR 25/21 A2976 RMK AO2 LTG DSNT N AND NE T02520212
KLNC 280735Z AUTO 18008KT 10SM CLR 26/21 A2977 RMK AO2 LTG DSNT NE T02550211
KLNC 280715Z AUTO 16007KT 10SM CLR 26/21 A2977 RMK AO2 LTG DSNT NE T02580212
KLNC 280655Z AUTO 17007G15KT 150V210 10SM CLR 26/22 A2978 RMK AO2 T02610215
KLNC 280635Z AUTO 19009G14KT 10SM CLR 26/22 A2978 RMK AO2 T02630216
KLNC 280615Z AUTO 18010G17KT 10SM CLR 27/22 A2977 RMK AO2 T02650216
KLNC 280555Z AUTO 19013G19KT 10SM CLR 27/22 A2977 RMK AO2 T02670217 10307 20267 403100247
KLNC 280535Z AUTO 18012G18KT 10SM CLR 27/22 A2977 RMK AO2 T02700220
KLNC 280515Z AUTO 18012G17KT 10SM CLR 27/22 A2979 RMK AO2 T02720222
KLNC 280455Z AUTO 17009KT 10SM CLR 28/23 A2980 RMK AO2 T02750225
KLNC 280435Z AUTO 18012G19KT 10SM CLR 28/23 A2979 RMK AO2 T02770228
KLNC 280415Z AUTO 17010G18KT 10SM CLR 28/23 A2978 RMK AO2 T02800230
KLNC 280355Z AUTO 16007G14KT 10SM CLR 28/23 A2977 RMK AO2 T02800230
KLNC 280335Z AUTO 16009G15KT 10SM CLR 28/23 A2976 RMK AO2 T02820231
KLNC 280315Z AUTO 17010G16KT 10SM CLR 28/23 A2976 RMK AO2 T02820234
KLNC 280255Z AUTO 17010KT 7SM CLR 28/24 A2977 RMK AO2 T02820235
KLNC 280235Z AUTO 17008KT 7SM CLR 29/24 A2976 RMK AO2 T02850236
KLNC 280215Z AUTO 17008KT 7SM CLR 29/24 A2976 RMK AO2 T02850236
KLNC 280155Z AUTO 17007KT 7SM SCT049 29/24 A2977 RMK AO2 T02870236
KLNC 280135Z AUTO 17006KT 7SM BKN047 29/24 A2977 RMK AO2 T02910236
KLNC 280115Z AUTO 17006KT 7SM SCT047 BKN055 30/24 A2977 RMK AO2 T02950236
KLNC 280055Z AUTO 17006KT 7SM OVC049 30/24 A2977 RMK AO2 T03000235
KLNC 280035Z AUTO 18006KT 7SM OVC049 30/24 A2978 RMK AO2 T03020237
KLNC 280015Z AUTO 18010KT 7SM OVC049 31/24 A2977 RMK AO2 T03050236
KLNC 272355Z AUTO 17007KT 7SM OVC045 31/24 A2978 RMK AO2 T03060236 10310 20283
KLNC 272335Z AUTO 17007KT 7SM OVC043 31/24 A2979 RMK AO2 T03060236


Page loaded:  11:32 UTC  |   04:32 AM Pacific  |   05:32 AM Mountain  |   06:32 AM Central  |   07:32 AM Eastern

 

ADVISORIES

FORECASTS

FORECASTS

OBSERVATIONS

USER TOOLS

ABOUT US